Scottsville, Kansas
Current Conditions -  °F | °C
As of 10:55 PM on Wednesday 26 Nov 2014 (Local Time) from KCNK Reporting Station
Clear Clear  
Wind Chill: 23°   Ceiling: Unl
Heat Index: 23°   Visibility: 10mi
Dew Point: 17°   Wind: 3mph
Humidity: 78%   Direction: 320°NW
Pressure: 30.45"   Gusts: NA
Location:  39.3832°N, 98.1405°W
Report Text: KCNK 270455Z AUTO 32003KT 10SM CLR M05/M08 A3045 RMK AO2 SLP327 T10501083
Loading
Personal Weather Stations






























Interactive Weather Map New forecast layout! Learn more

10-Day Weather Forecast

Advertisements
Track Severe Weather on mobile